This is the latest recevied weather packets stored in our database for station/object WM1X. If no packets are shown the sender has not sent any weather packets the latest 10 day(s).
| Time | Temp. | Humidity | Pressure | Rain* | Wind** | Luminosity | Snow |
|---|---|---|---|---|---|---|---|
| 1777831504 | 8.89° C | 46% | 1007.1 hPa | 0 mm | - | - | - |
| 1777830304 | 8.33° C | 46% | 1007.1 hPa | 0 mm | - | - | - |
| 1777827904 | 7.78° C | 52% | 1007.4 hPa | 0 mm | - | - | - |
| 1777826704 | 8.33° C | 51% | 1007.3 hPa | 0 mm | - | - | - |
| 1777822504 | 7.22° C | 60% | 1007.4 hPa | 0 mm | - | - | - |
| 1777820704 | 6.11° C | 68% | 1007.6 hPa | 0 mm | - | - | - |
| 1777816504 | 5° C | 78% | 1008 hPa | 0 mm | - | - | - |
| 1777809904 | 3.89° C | 85% | 1008.1 hPa | 0 mm | - | - | - |
| 1777803904 | 3.33° C | 88% | 1007.9 hPa | 0 mm | - | - | - |
| 1777801504 | 3.33° C | 89% | 1008 hPa | 0 mm | - | - | - |
| 1777794904 | 3.89° C | 88% | 1009.1 hPa | 0.51 mm | - | - | - |
| 1777792504 | 3.89° C | 87% | 1009.2 hPa | 0 mm | - | - | - |
| 1777784703 | 4.44° C | 86% | 1010.6 hPa | 0 mm | - | - | - |
| 1777782304 | 5.56° C | 82% | 1010.8 hPa | 0 mm | - | - | - |
| 1777779904 | 5.56° C | 82% | 1011.1 hPa | 0 mm | - | - | - |
| 1777779304 | 5.56° C | 82% | 1011.1 hPa | 0 mm | - | - | - |
| 1777774504 | 6.67° C | 76% | 1011.3 hPa | 1.27 mm | - | - | - |
| 1777772104 | 6.11° C | 96% | 1011.5 hPa | 0.51 mm | - | - | - |
| 1777766704 | 6.67° C | 96% | 1011 hPa | 0 mm | - | - | - |
| 1777766104 | 6.67° C | 96% | 1011 hPa | 0 mm | - | - | - |
| 1777764903 | 6.67° C | 96% | 1010.8 hPa | 1.27 mm | - | - | - |
| 1777763703 | 7.22° C | 96% | 1010.8 hPa | 1.27 mm | - | - | - |
| 1777761903 | 7.78° C | 95% | 1010.4 hPa | 0.76 mm | - | - | - |
| 1777757104 | 8.33° C | 96% | 1010.2 hPa | 0.76 mm | - | - | - |
| 1777746304 | 9.44° C | 87% | 1011 hPa | 0 mm | - | - | - |
* Rain latest hour (hover to see other rain measurements)
** Current wind speed in m/s (hover to see current wind gust speed)